createdAt,value
2019-02-08T00:01:18.034Z,11.27
2019-02-08T00:04:10.193Z,11.77
2019-02-08T00:07:00.753Z,14.60
2019-02-08T00:09:52.264Z,13.43
2019-02-08T00:12:42.848Z,13.77
2019-02-08T00:15:33.527Z,13.87
2019-02-08T00:18:24.494Z,13.77
2019-02-08T00:21:14.986Z,14.27
2019-02-08T00:24:05.464Z,12.70
2019-02-08T00:26:55.664Z,11.90
2019-02-08T00:29:46.226Z,13.40
2019-02-08T00:32:36.682Z,12.37
2019-02-08T00:35:27.324Z,13.17
2019-02-08T00:38:17.972Z,15.13
2019-02-08T00:41:08.243Z,15.67
2019-02-08T00:43:59.320Z,14.50
2019-02-08T00:46:50.683Z,14.47
2019-02-08T00:49:41.106Z,13.57
2019-02-08T00:52:31.986Z,12.97
2019-02-08T00:55:22.031Z,13.07
2019-02-08T00:58:11.997Z,13.97
2019-02-08T01:01:02.221Z,12.93
2019-02-08T01:03:53.523Z,13.40
2019-02-08T01:06:44.343Z,13.03
2019-02-08T01:09:34.773Z,14.83
2019-02-08T01:12:24.560Z,13.60
2019-02-08T01:15:15.584Z,12.90
2019-02-08T01:18:06.344Z,12.60
2019-02-08T01:20:56.884Z,13.83
2019-02-08T01:23:47.668Z,14.50
2019-02-08T01:26:38.044Z,12.60
2019-02-08T01:29:28.284Z,12.60
2019-02-08T01:32:18.287Z,13.40
2019-02-08T01:35:10.667Z,13.03
2019-02-08T01:38:01.864Z,12.90
2019-02-08T01:40:52.089Z,11.10
2019-02-08T01:43:42.930Z,13.33
2019-02-08T01:46:34.176Z,13.37
2019-02-08T01:49:25.344Z,14.57
2019-02-08T01:52:15.623Z,13.40
2019-02-08T01:55:07.124Z,15.07
2019-02-08T01:57:59.633Z,12.77
2019-02-08T02:00:50.283Z,12.17
2019-02-08T02:03:40.443Z,13.47
2019-02-08T02:06:31.342Z,12.93
2019-02-08T02:09:22.094Z,12.57
2019-02-08T02:12:13.065Z,13.03
2019-02-08T02:15:03.447Z,12.17
2019-02-08T02:17:53.964Z,11.23
2019-02-08T02:20:45.492Z,12.83
2019-02-08T02:23:36.336Z,14.60
2019-02-08T02:26:26.784Z,12.37
2019-02-08T02:29:17.165Z,13.50
2019-02-08T02:32:07.785Z,14.10
2019-02-08T02:34:58.824Z,14.33
2019-02-08T02:37:48.627Z,13.90
2019-02-08T02:40:39.946Z,11.93
2019-02-08T02:43:32.513Z,12.83
2019-02-08T02:46:23.498Z,12.47
2019-02-08T02:49:14.262Z,12.07
2019-02-08T02:52:04.944Z,11.47
2019-02-08T02:54:55.283Z,13.00
2019-02-08T02:57:45.723Z,11.80
2019-02-08T03:04:43.004Z,12.30
2019-02-08T03:07:34.186Z,11.93
2019-02-08T03:10:24.835Z,12.73
2019-02-08T03:13:14.740Z,11.57
2019-02-08T03:16:04.425Z,14.30
2019-02-08T03:18:54.280Z,13.43
2019-02-08T03:21:44.560Z,12.83
2019-02-08T03:24:34.781Z,14.80
2019-02-08T03:27:24.313Z,15.37
2019-02-08T03:30:17.923Z,14.53
2019-02-08T03:33:07.616Z,12.83
2019-02-08T03:35:57.682Z,12.90
2019-02-08T03:38:47.942Z,14.83
2019-02-08T03:41:38.042Z,14.93
2019-02-08T03:44:27.763Z,15.43
2019-02-08T03:47:18.582Z,14.30
2019-02-08T03:50:12.567Z,15.23
2019-02-08T03:53:02.665Z,15.40
2019-02-08T03:55:57.976Z,16.00
2019-02-08T03:58:43.976Z,12.70
2019-02-08T04:01:33.683Z,15.23
2019-02-08T04:04:24.275Z,13.63
2019-02-08T04:07:13.809Z,14.63
2019-02-08T04:10:04.403Z,15.27
2019-02-08T04:12:54.644Z,12.87
2019-02-08T04:15:44.567Z,15.40
2019-02-08T04:18:34.221Z,14.67
2019-02-08T04:21:24.423Z,14.13
2019-02-08T04:24:14.323Z,14.53
2019-02-08T04:27:04.561Z,12.30
2019-02-08T04:29:55.222Z,13.53
2019-02-08T04:32:44.761Z,15.73
2019-02-08T04:35:34.840Z,15.27
2019-02-08T04:38:24.881Z,14.67
2019-02-08T04:41:14.536Z,13.90
2019-02-08T04:44:04.721Z,14.20
2019-02-08T04:46:54.320Z,14.60
2019-02-08T04:49:44.902Z,14.10
2019-02-08T04:52:34.801Z,14.33
2019-02-08T04:55:25.349Z,13.73
2019-02-08T04:58:14.880Z,15.37
2019-02-08T05:01:05.521Z,13.57
2019-02-08T05:03:55.281Z,15.67
2019-02-08T05:06:45.121Z,15.47
2019-02-08T05:09:35.300Z,17.40
2019-02-08T05:12:25.543Z,15.80
2019-02-08T05:15:16.607Z,16.43
2019-02-08T05:18:07.299Z,15.37
2019-02-08T05:20:56.993Z,16.07
2019-02-08T05:23:47.440Z,16.07
2019-02-08T05:26:37.682Z,14.47
2019-02-08T05:29:27.921Z,15.10
2019-02-08T05:32:17.362Z,16.33
2019-02-08T05:35:08.483Z,18.60
2019-02-08T05:37:58.641Z,17.40
2019-02-08T05:40:48.622Z,16.50
2019-02-08T05:43:38.365Z,17.33
2019-02-08T05:46:28.421Z,16.40
2019-02-08T05:49:18.401Z,17.13
2019-02-08T05:52:08.400Z,16.93
2019-02-08T05:54:58.927Z,15.13
2019-02-08T05:57:49.141Z,14.13
2019-02-08T06:00:46.023Z,16.43
2019-02-08T06:03:35.640Z,14.70
2019-02-08T06:06:25.280Z,14.10
2019-02-08T06:09:15.021Z,15.13
2019-02-08T06:12:05.371Z,16.23
2019-02-08T06:14:55.942Z,15.23
2019-02-08T06:17:45.540Z,14.97
2019-02-08T06:20:36.104Z,16.00
2019-02-08T06:23:25.761Z,14.73
2019-02-08T06:26:15.917Z,15.53
2019-02-08T06:29:06.802Z,16.40
2019-02-08T06:31:56.639Z,16.73
2019-02-08T06:34:46.007Z,15.17
2019-02-08T06:37:43.846Z,15.73
2019-02-08T06:40:28.402Z,14.53
2019-02-08T06:43:18.340Z,17.10
2019-02-08T06:46:07.950Z,16.83
2019-02-08T06:48:58.036Z,14.97
2019-02-08T06:51:48.401Z,15.97
2019-02-08T06:54:38.641Z,16.00
2019-02-08T06:57:46.301Z,16.03
2019-02-08T07:00:58.800Z,14.97
2019-02-08T07:04:08.440Z,14.73
2019-02-08T07:07:11.001Z,15.50
2019-02-08T07:10:19.541Z,15.37
2019-02-08T07:13:28.200Z,14.70
2019-02-08T07:16:35.441Z,16.33
2019-02-08T07:19:44.258Z,15.87
2019-02-08T07:22:51.894Z,15.77
2019-02-08T07:26:00.844Z,17.40
2019-02-08T07:29:00.621Z,15.73
2019-02-08T07:32:24.460Z,15.33
2019-02-08T07:35:33.721Z,15.40
2019-02-08T07:38:42.780Z,14.37
2019-02-08T07:41:52.317Z,15.43
2019-02-08T07:45:05.525Z,15.63
2019-02-08T07:48:18.519Z,16.57
2019-02-08T07:51:30.500Z,14.20
2019-02-08T07:54:38.020Z,15.70
2019-02-08T07:57:47.728Z,16.00
2019-02-08T08:01:00.480Z,16.10
2019-02-08T08:04:08.162Z,15.43
2019-02-08T08:07:17.988Z,16.67
2019-02-08T08:10:15.621Z,14.87
2019-02-08T08:13:23.782Z,14.80
2019-02-08T08:16:32.580Z,14.47
2019-02-08T08:19:31.640Z,16.23
2019-02-08T08:22:43.265Z,15.70
2019-02-08T08:25:53.279Z,15.77
2019-02-08T08:29:05.220Z,15.93
2019-02-08T08:32:23.646Z,15.47
2019-02-08T08:35:52.123Z,15.23
2019-02-08T08:39:21.320Z,14.93
2019-02-08T08:42:46.662Z,15.17
2019-02-08T08:46:26.161Z,14.57
2019-02-08T08:49:52.682Z,14.87
2019-02-08T08:53:22.080Z,14.67
2019-02-08T08:56:37.820Z,15.17
2019-02-08T09:00:13.720Z,17.23
2019-02-08T09:03:50.744Z,16.17
2019-02-08T09:07:23.565Z,14.33
2019-02-08T09:11:02.102Z,15.20
2019-02-08T09:14:34.480Z,15.40
2019-02-08T09:18:15.201Z,17.63
2019-02-08T09:21:58.660Z,26.03
2019-02-08T09:25:14.338Z,16.43
2019-02-08T09:28:32.561Z,13.93
2019-02-08T09:32:09.915Z,14.33
2019-02-08T09:35:46.500Z,13.80
2019-02-08T09:39:10.266Z,12.00
2019-02-08T09:42:43.661Z,11.63
2019-02-08T09:46:28.372Z,9.37
2019-02-08T09:49:45.201Z,6.60
2019-02-08T09:53:11.283Z,7.77
2019-02-08T09:56:52.421Z,8.00
2019-02-08T10:00:08.976Z,7.83
2019-02-08T10:03:45.202Z,8.17
2019-02-08T10:07:13.920Z,7.50
2019-02-08T10:10:47.318Z,8.13
2019-02-08T10:14:32.059Z,7.87
2019-02-08T10:18:23.400Z,7.97
2019-02-08T10:21:52.891Z,7.50
2019-02-08T10:25:23.440Z,7.40
2019-02-08T10:28:42.569Z,6.93
2019-02-08T10:32:20.241Z,6.00
2019-02-08T10:35:35.982Z,5.90
2019-02-08T10:39:07.260Z,6.00
2019-02-08T10:42:31.300Z,5.47
2019-02-08T10:45:54.701Z,6.00
2019-02-08T10:49:24.161Z,6.30
2019-02-08T10:53:16.260Z,6.00
2019-02-08T10:57:11.280Z,5.43
2019-02-08T11:00:45.041Z,5.27
2019-02-08T11:04:29.640Z,4.90
2019-02-08T11:07:58.021Z,4.27
2019-02-08T11:11:41.446Z,4.60
2019-02-08T11:15:04.182Z,5.03
2019-02-08T11:18:44.080Z,4.47
2019-02-08T11:21:34.981Z,6.33
2019-02-08T11:24:29.119Z,5.20
2019-02-08T11:27:18.643Z,4.77
2019-02-08T11:30:13.361Z,9.33
2019-02-08T11:33:02.843Z,13.58
2019-02-08T11:35:54.164Z,12.78
2019-02-08T11:38:43.920Z,12.67
2019-02-08T11:41:33.967Z,14.07
2019-02-08T11:44:24.881Z,13.97
2019-02-08T11:47:15.241Z,16.07
2019-02-08T11:50:06.003Z,12.47
2019-02-08T11:52:57.061Z,13.43
2019-02-08T11:55:47.442Z,11.97
2019-02-08T11:58:37.361Z,13.27
2019-02-08T12:01:28.882Z,12.37
2019-02-08T12:04:20.723Z,12.13
2019-02-08T12:07:10.887Z,13.83
2019-02-08T12:10:00.660Z,11.97
2019-02-08T12:12:50.766Z,12.63
2019-02-08T12:15:41.143Z,12.30
2019-02-08T12:18:31.200Z,13.60
2019-02-08T12:21:21.202Z,12.70
2019-02-08T12:24:11.380Z,11.93
2019-02-08T12:27:01.282Z,11.57
2019-02-08T12:29:50.604Z,10.73
2019-02-08T12:32:40.618Z,9.00
2019-02-08T12:35:30.263Z,9.90
2019-02-08T12:38:20.402Z,11.30
2019-02-08T12:41:10.963Z,11.78
2019-02-08T12:44:01.080Z,13.23
2019-02-08T12:46:51.140Z,12.85
2019-02-08T12:49:41.539Z,12.07
2019-02-08T12:52:31.384Z,11.97
2019-02-08T12:55:21.633Z,11.47
2019-02-08T12:58:11.341Z,11.27
2019-02-08T13:01:01.811Z,12.37
2019-02-08T13:03:51.514Z,11.60
2019-02-08T13:06:41.888Z,11.85
2019-02-08T13:09:32.043Z,13.35
2019-02-08T13:12:21.810Z,12.65
2019-02-08T13:15:13.340Z,12.60
2019-02-08T13:18:03.640Z,10.88
2019-02-08T13:20:54.121Z,14.50
2019-02-08T13:23:44.270Z,13.80
2019-02-08T13:26:34.221Z,13.00
2019-02-08T13:29:24.420Z,12.65
2019-02-08T13:32:14.341Z,11.45
2019-02-08T13:35:04.762Z,11.78
2019-02-08T13:37:54.741Z,11.33
2019-02-08T13:40:45.441Z,11.35
2019-02-08T13:43:35.621Z,11.93
2019-02-08T13:46:25.861Z,12.60
2019-02-08T13:49:16.013Z,12.60
2019-02-08T13:52:06.442Z,11.85
2019-02-08T13:54:56.582Z,11.18
2019-02-08T13:57:46.522Z,11.22
2019-02-08T14:00:38.001Z,10.85
2019-02-08T14:03:27.407Z,11.08
2019-02-08T14:06:17.542Z,11.15
2019-02-08T14:09:10.523Z,12.40
2019-02-08T14:12:01.121Z,11.83
2019-02-08T14:14:51.160Z,11.18
2019-02-08T14:17:41.402Z,11.88
2019-02-08T14:20:31.580Z,12.25
2019-02-08T14:23:21.721Z,12.20
2019-02-08T14:26:11.602Z,13.30
2019-02-08T14:29:01.401Z,12.15
2019-02-08T14:31:52.972Z,13.78
2019-02-08T14:34:43.834Z,18.20
2019-02-08T14:37:34.343Z,14.93
2019-02-08T14:40:24.941Z,13.20
2019-02-08T14:43:15.012Z,13.67
2019-02-08T14:46:05.055Z,16.53
2019-02-08T14:48:57.166Z,13.00
2019-02-08T14:51:46.880Z,13.30
2019-02-08T14:54:37.483Z,12.33
2019-02-08T14:57:27.621Z,12.47
2019-02-08T15:00:18.968Z,10.27
2019-02-08T15:03:09.041Z,9.70
2019-02-08T15:05:59.282Z,10.70
2019-02-08T15:08:49.722Z,11.23
2019-02-08T15:11:40.109Z,11.37
2019-02-08T15:14:29.830Z,13.00
2019-02-08T15:17:20.241Z,11.77
2019-02-08T15:20:17.325Z,11.07
2019-02-08T15:23:07.782Z,11.60
2019-02-08T15:25:58.020Z,11.77
2019-02-08T15:28:48.260Z,11.97
2019-02-08T15:31:38.502Z,12.47
2019-02-08T15:34:29.224Z,12.30
2019-02-08T15:37:20.563Z,12.43
2019-02-08T15:40:15.400Z,11.53
2019-02-08T15:43:06.041Z,11.43
2019-02-08T15:45:58.340Z,11.53
2019-02-08T15:48:48.600Z,11.17
2019-02-08T15:51:38.923Z,12.37
2019-02-08T15:54:29.041Z,12.17
2019-02-08T15:57:19.603Z,11.97
2019-02-08T16:00:10.522Z,12.67
2019-02-08T16:03:00.701Z,10.23
2019-02-08T16:05:50.662Z,9.73
2019-02-08T16:08:41.522Z,11.60
2019-02-08T16:11:31.443Z,10.83
2019-02-08T16:14:21.503Z,10.33
2019-02-08T16:17:11.460Z,11.27
2019-02-08T16:20:01.643Z,11.90
2019-02-08T16:22:52.403Z,10.93
2019-02-08T16:25:42.641Z,11.57
2019-02-08T16:28:33.540Z,12.07
2019-02-08T16:31:24.062Z,13.03
2019-02-08T16:34:13.780Z,13.53
2019-02-08T16:37:04.020Z,12.63
2019-02-08T16:39:55.121Z,11.73
2019-02-08T16:42:45.001Z,12.00
2019-02-08T16:45:36.492Z,12.43
2019-02-08T16:48:26.101Z,12.93
2019-02-08T16:51:15.961Z,12.07
2019-02-08T16:54:06.201Z,13.20
2019-02-08T16:56:56.262Z,12.40
2019-02-08T16:59:46.107Z,10.87
2019-02-08T17:02:35.712Z,11.03
2019-02-08T17:05:27.760Z,10.73
2019-02-08T17:08:17.521Z,10.63
2019-02-08T17:11:07.645Z,10.43
2019-02-08T17:13:58.006Z,9.83
2019-02-08T17:16:48.560Z,12.27
2019-02-08T17:19:39.564Z,11.27
2019-02-08T17:22:30.494Z,12.13
2019-02-08T17:25:20.886Z,12.10
2019-02-08T17:28:12.123Z,11.07
2019-02-08T17:31:02.460Z,11.80
2019-02-08T17:33:52.481Z,12.77
2019-02-08T17:36:42.121Z,11.53
2019-02-08T17:39:31.761Z,10.03
2019-02-08T17:42:22.346Z,12.13
2019-02-08T17:45:13.521Z,10.87
2019-02-08T17:48:04.301Z,11.73
2019-02-08T17:50:54.646Z,11.80
2019-02-08T17:53:44.446Z,11.80
2019-02-08T17:56:34.262Z,9.77
2019-02-08T17:59:24.720Z,12.43
2019-02-08T18:02:15.323Z,13.37
2019-02-08T18:05:06.821Z,12.27
2019-02-08T18:07:57.361Z,14.37
2019-02-08T18:10:47.082Z,13.37
2019-02-08T18:13:37.200Z,13.43
2019-02-08T18:16:27.441Z,14.87
2019-02-08T18:19:18.306Z,13.17
2019-02-08T18:22:08.080Z,12.10
2019-02-08T18:24:58.623Z,13.23
2019-02-08T18:27:49.057Z,15.00
2019-02-08T18:30:39.942Z,13.07
2019-02-08T18:33:31.021Z,13.60
2019-02-08T18:36:21.691Z,14.57
2019-02-08T18:39:11.706Z,15.00
2019-02-08T18:42:01.840Z,15.87
2019-02-08T18:44:51.786Z,16.73
2019-02-08T18:47:41.961Z,18.87
2019-02-08T18:50:38.322Z,16.33
2019-02-08T18:53:27.961Z,17.63
2019-02-08T18:56:17.881Z,17.07
2019-02-08T18:59:07.838Z,16.17
2019-02-08T19:01:57.842Z,14.87
2019-02-08T19:04:47.947Z,13.87
2019-02-08T19:07:39.768Z,16.30
2019-02-08T19:10:29.941Z,16.00
2019-02-08T19:13:19.602Z,15.13
2019-02-08T19:16:10.197Z,15.37
2019-02-08T19:19:00.523Z,15.40
2019-02-08T19:21:51.146Z,13.97
2019-02-08T19:24:41.620Z,17.07
2019-02-08T19:27:31.342Z,16.03
2019-02-08T19:30:26.827Z,16.87
2019-02-08T19:33:16.683Z,17.50
2019-02-08T19:36:07.497Z,16.00
2019-02-08T19:38:56.669Z,16.13
2019-02-08T19:41:46.481Z,14.80
2019-02-08T19:44:36.801Z,16.27
2019-02-08T19:47:26.702Z,14.53
2019-02-08T19:50:21.542Z,16.63
2019-02-08T19:53:11.884Z,15.70
2019-02-08T19:56:03.252Z,17.40
2019-02-08T19:58:55.887Z,17.67
2019-02-08T20:01:45.864Z,16.30
2019-02-08T20:04:36.461Z,17.37
2019-02-08T20:07:26.363Z,15.97
2019-02-08T20:10:23.285Z,15.07
2019-02-08T20:13:13.735Z,15.53
2019-02-08T20:16:03.761Z,14.13
2019-02-08T20:18:54.023Z,15.03
2019-02-08T20:21:44.345Z,13.87
2019-02-08T20:24:34.041Z,14.37
2019-02-08T20:27:24.262Z,14.53
2019-02-08T20:30:17.061Z,14.30
2019-02-08T20:33:07.413Z,15.13
2019-02-08T20:35:57.445Z,14.77
2019-02-08T20:38:47.341Z,14.80
2019-02-08T20:41:37.981Z,15.13
2019-02-08T20:44:28.142Z,14.67
2019-02-08T20:47:18.661Z,14.37
2019-02-08T20:50:08.584Z,15.43
2019-02-08T20:52:59.761Z,17.13
2019-02-08T20:55:50.146Z,15.73
2019-02-08T20:58:40.310Z,15.30
2019-02-08T21:01:31.143Z,15.40
2019-02-08T21:04:21.061Z,14.97
2019-02-08T21:07:11.602Z,14.03
2019-02-08T21:10:07.546Z,15.50
2019-02-08T21:13:02.683Z,15.60
2019-02-08T21:15:54.483Z,14.27
2019-02-08T21:18:44.683Z,15.23
2019-02-08T21:21:35.281Z,13.53
2019-02-08T21:24:25.784Z,15.17
2019-02-08T21:27:15.591Z,13.87
2019-02-08T21:30:07.924Z,14.13
2019-02-08T21:32:57.863Z,14.27
2019-02-08T21:35:49.547Z,13.97
2019-02-08T21:38:39.301Z,14.10
2019-02-08T21:41:29.544Z,12.77
2019-02-08T21:44:20.423Z,12.97
2019-02-08T21:47:10.645Z,13.90
2019-02-08T21:50:01.320Z,13.63
2019-02-08T21:52:52.422Z,13.20
2019-02-08T21:55:41.926Z,13.67
2019-02-08T21:58:32.141Z,13.83
2019-02-08T22:01:22.161Z,12.43
2019-02-08T22:04:12.022Z,12.23
2019-02-08T22:07:02.063Z,14.17
2019-02-08T22:09:51.842Z,12.23
2019-02-08T22:12:43.443Z,10.80
2019-02-08T22:15:35.927Z,10.70
2019-02-08T22:18:25.638Z,10.77
2019-02-08T22:21:15.241Z,10.53
2019-02-08T22:24:06.159Z,10.37
2019-02-08T22:26:57.522Z,11.53
2019-02-08T22:29:47.434Z,8.87
2019-02-08T22:32:37.188Z,10.13
2019-02-08T22:35:28.581Z,10.90
2019-02-08T22:38:18.800Z,11.20
2019-02-08T22:41:08.740Z,10.00
2019-02-08T22:43:58.601Z,9.47
2019-02-08T22:46:50.375Z,10.17
2019-02-08T22:49:40.421Z,8.63
2019-02-08T22:52:30.410Z,9.63
2019-02-08T22:55:21.691Z,9.03
2019-02-08T22:58:12.358Z,9.43
2019-02-08T23:01:36.244Z,9.17
2019-02-08T23:04:26.802Z,8.20
2019-02-08T23:07:17.121Z,7.77
2019-02-08T23:10:11.300Z,7.40
2019-02-08T23:13:01.032Z,7.63
2019-02-08T23:15:51.284Z,7.30
2019-02-08T23:18:41.541Z,8.40
2019-02-08T23:21:32.100Z,7.33
2019-02-08T23:24:21.880Z,8.30
2019-02-08T23:27:13.378Z,8.17
2019-02-08T23:30:05.480Z,7.07
2019-02-08T23:32:55.141Z,7.27
2019-02-08T23:35:45.845Z,7.57
2019-02-08T23:38:35.680Z,8.13
2019-02-08T23:41:25.548Z,7.00
2019-02-08T23:44:15.100Z,7.40
2019-02-08T23:47:04.914Z,7.10
2019-02-08T23:49:54.702Z,7.63
2019-02-08T23:52:44.680Z,7.17
2019-02-08T23:55:34.640Z,7.20
2019-02-08T23:58:24.882Z,6.63
